createdAt,value
2018-03-24T00:00:05.836Z,5.60
2018-03-24T00:01:05.871Z,5.51
2018-03-24T00:02:05.908Z,5.60
2018-03-24T00:03:05.932Z,5.58
2018-03-24T00:04:05.967Z,5.48
2018-03-24T00:05:06.003Z,5.60
2018-03-24T00:06:06.027Z,5.53
2018-03-24T00:07:06.065Z,5.58
2018-03-24T00:08:06.105Z,5.51
2018-03-24T00:09:06.154Z,5.49
2018-03-24T00:10:06.157Z,5.49
2018-03-24T00:11:06.184Z,5.48
2018-03-24T00:12:06.219Z,5.46
2018-03-24T00:13:06.253Z,5.46
2018-03-24T00:14:06.294Z,5.48
2018-03-24T00:15:06.313Z,5.49
2018-03-24T00:16:06.457Z,5.42
2018-03-24T00:17:06.378Z,5.40
2018-03-24T00:18:06.410Z,5.46
2018-03-24T00:19:06.446Z,5.51
2018-03-24T00:20:06.474Z,5.46
2018-03-24T00:21:06.516Z,5.38
2018-03-24T00:22:06.534Z,5.42
2018-03-24T00:23:06.569Z,5.46
2018-03-24T00:24:06.635Z,5.49
2018-03-24T00:25:06.634Z,5.40
2018-03-24T00:26:06.662Z,5.38
2018-03-24T00:27:06.698Z,5.45
2018-03-24T00:28:06.729Z,5.40
2018-03-24T00:29:06.760Z,5.46
2018-03-24T00:30:06.790Z,5.35
2018-03-24T00:31:06.831Z,5.45
2018-03-24T00:32:06.914Z,5.40
2018-03-24T00:33:06.890Z,5.48
2018-03-24T00:34:06.917Z,5.38
2018-03-24T00:35:06.964Z,5.39
2018-03-24T00:36:06.980Z,5.22
2018-03-24T00:37:07.016Z,5.33
2018-03-24T00:38:07.050Z,5.35
2018-03-24T00:39:07.084Z,5.21
2018-03-24T00:40:07.109Z,5.21
2018-03-24T00:41:07.140Z,5.28
2018-03-24T00:42:07.168Z,5.21
2018-03-24T00:43:07.200Z,5.35
2018-03-24T00:44:07.240Z,5.20
2018-03-24T00:45:07.266Z,5.21
2018-03-24T00:46:07.297Z,5.27
2018-03-24T00:47:07.332Z,5.18
2018-03-24T00:48:07.361Z,5.15
2018-03-24T00:49:07.400Z,5.27
2018-03-24T00:50:07.423Z,5.22
2018-03-24T00:51:07.472Z,5.12
2018-03-24T00:52:07.499Z,5.20
2018-03-24T00:53:07.519Z,5.22
2018-03-24T00:54:07.549Z,5.20
2018-03-24T00:55:07.583Z,5.18
2018-03-24T00:56:07.612Z,5.21
2018-03-24T00:57:07.647Z,5.25
2018-03-24T00:58:07.678Z,5.28
2018-03-24T00:59:07.716Z,5.43
2018-03-24T01:00:07.740Z,5.38
2018-03-24T01:01:07.771Z,5.39
2018-03-24T01:02:07.805Z,5.36
2018-03-24T01:03:07.847Z,5.22
2018-03-24T01:04:07.868Z,5.28
2018-03-24T01:05:07.900Z,5.30
2018-03-24T01:06:07.930Z,5.30
2018-03-24T01:07:07.969Z,5.28
2018-03-24T01:08:07.997Z,5.40
2018-03-24T01:09:08.025Z,5.40
2018-03-24T01:10:08.082Z,5.30
2018-03-24T01:11:08.146Z,5.30
2018-03-24T01:12:08.119Z,5.30
2018-03-24T01:13:08.154Z,5.27
2018-03-24T01:14:08.183Z,5.27
2018-03-24T01:15:08.220Z,5.35
2018-03-24T01:16:08.256Z,5.40
2018-03-24T01:17:08.281Z,5.38
2018-03-24T01:18:08.311Z,5.40
2018-03-24T01:19:08.343Z,5.30
2018-03-24T01:20:08.378Z,5.25
2018-03-24T01:21:08.407Z,5.22
2018-03-24T01:22:08.442Z,5.20
2018-03-24T01:23:08.469Z,5.24
2018-03-24T01:24:08.501Z,5.20
2018-03-24T01:25:08.541Z,5.25
2018-03-24T01:26:08.563Z,5.25
2018-03-24T01:27:08.593Z,5.21
2018-03-24T01:28:08.631Z,5.22
2018-03-24T01:29:08.660Z,5.20
2018-03-24T01:30:08.689Z,5.21
2018-03-24T01:31:08.721Z,5.20
2018-03-24T01:32:08.752Z,5.24
2018-03-24T01:33:08.789Z,5.13
2018-03-24T01:34:08.815Z,5.18
2018-03-24T01:35:08.914Z,5.22
2018-03-24T01:36:08.882Z,5.20
2018-03-24T01:37:08.917Z,5.27
2018-03-24T01:38:08.942Z,5.31
2018-03-24T01:39:08.981Z,5.20
2018-03-24T01:40:09.008Z,5.25
2018-03-24T01:41:09.039Z,5.12
2018-03-24T01:42:09.072Z,5.21
2018-03-24T01:43:09.104Z,5.25
2018-03-24T01:44:09.134Z,5.22
2018-03-24T01:45:09.169Z,5.17
2018-03-24T01:46:09.198Z,5.18
2018-03-24T01:47:09.230Z,5.21
2018-03-24T01:48:09.264Z,5.22
2018-03-24T01:49:09.295Z,5.18
2018-03-24T01:50:09.327Z,5.21
2018-03-24T01:51:09.357Z,5.17
2018-03-24T01:52:09.439Z,5.21
2018-03-24T01:53:09.419Z,5.24
2018-03-24T01:54:09.463Z,5.27
2018-03-24T01:55:09.483Z,5.25
2018-03-24T01:56:09.517Z,5.38
2018-03-24T01:57:09.544Z,5.40
2018-03-24T01:58:09.577Z,5.40
2018-03-24T01:59:09.612Z,5.36
2018-03-24T02:00:09.645Z,5.36
2018-03-24T02:01:09.675Z,5.30
2018-03-24T02:02:09.707Z,5.43
2018-03-24T02:03:09.740Z,5.38
2018-03-24T02:04:09.767Z,5.45
2018-03-24T02:05:09.797Z,5.36
2018-03-24T02:06:09.831Z,5.53
2018-03-24T02:07:09.864Z,5.46
2018-03-24T02:08:09.895Z,5.48
2018-03-24T02:09:09.927Z,5.54
2018-03-24T02:10:09.956Z,5.45
2018-03-24T02:11:10.021Z,5.33
2018-03-24T02:12:10.021Z,5.49
2018-03-24T02:13:10.053Z,5.42
2018-03-24T02:14:10.089Z,5.40
2018-03-24T02:15:10.116Z,5.36
2018-03-24T02:16:10.151Z,5.24
2018-03-24T02:17:10.181Z,5.28
2018-03-24T02:18:10.251Z,5.30
2018-03-24T02:19:10.243Z,5.27
2018-03-24T02:20:10.281Z,5.38
2018-03-24T02:21:10.307Z,5.36
2018-03-24T02:22:10.337Z,5.30
2018-03-24T02:23:10.369Z,5.40
2018-03-24T02:24:10.400Z,5.38
2018-03-24T02:25:10.433Z,5.46
2018-03-24T02:26:10.463Z,5.40
2018-03-24T02:27:10.499Z,5.35
2018-03-24T02:28:10.554Z,5.27
2018-03-24T02:29:10.561Z,5.30
2018-03-24T02:30:10.592Z,5.39
2018-03-24T02:31:10.630Z,5.31
2018-03-24T02:32:10.655Z,5.27
2018-03-24T02:33:10.689Z,5.40
2018-03-24T02:34:10.725Z,5.30
2018-03-24T02:35:10.763Z,5.36
2018-03-24T02:36:10.780Z,5.39
2018-03-24T02:37:10.818Z,5.42
2018-03-24T02:38:10.845Z,5.51
2018-03-24T02:39:10.882Z,5.36
2018-03-24T02:40:10.910Z,5.48
2018-03-24T02:41:10.939Z,5.38
2018-03-24T02:42:10.985Z,5.33
2018-03-24T02:43:11.011Z,5.28
2018-03-24T02:44:11.034Z,5.24
2018-03-24T02:45:11.064Z,5.35
2018-03-24T02:46:11.100Z,5.21
2018-03-24T02:47:11.130Z,5.15
2018-03-24T02:48:11.166Z,5.15
2018-03-24T02:49:11.195Z,5.02
2018-03-24T02:50:11.224Z,5.06
2018-03-24T02:51:11.256Z,5.04
2018-03-24T02:52:11.292Z,5.10
2018-03-24T02:53:11.321Z,5.04
2018-03-24T02:54:11.361Z,5.10
2018-03-24T02:55:11.386Z,5.13
2018-03-24T02:56:11.415Z,5.13
2018-03-24T02:57:11.451Z,5.07
2018-03-24T02:58:11.477Z,5.06
2018-03-24T02:59:11.510Z,5.10
2018-03-24T03:00:11.542Z,5.12
2018-03-24T03:01:11.574Z,5.04
2018-03-24T03:02:11.606Z,5.06
2018-03-24T03:03:11.640Z,5.09
2018-03-24T03:04:11.673Z,5.04
2018-03-24T03:05:11.703Z,5.02
2018-03-24T03:06:11.734Z,5.03
2018-03-24T03:07:11.762Z,5.02
2018-03-24T03:08:11.794Z,5.04
2018-03-24T03:09:11.825Z,5.07
2018-03-24T03:10:11.855Z,5.02
2018-03-24T03:11:11.987Z,5.10
2018-03-24T03:12:11.919Z,5.02
2018-03-24T03:13:11.966Z,5.06
2018-03-24T03:14:11.983Z,5.06
2018-03-24T03:15:12.012Z,5.06
2018-03-24T03:16:12.046Z,5.12
2018-03-24T03:17:12.075Z,5.06
2018-03-24T03:18:12.120Z,5.07
2018-03-24T03:19:12.138Z,5.07
2018-03-24T03:20:12.173Z,4.99
2018-03-24T03:21:12.203Z,5.00
2018-03-24T03:22:12.233Z,4.99
2018-03-24T03:23:12.269Z,5.09
2018-03-24T03:24:12.299Z,5.00
2018-03-24T03:25:12.329Z,4.97
2018-03-24T03:26:12.365Z,4.92
2018-03-24T03:27:12.394Z,4.99
2018-03-24T03:28:12.489Z,4.97
2018-03-24T03:29:12.454Z,4.92
2018-03-24T03:30:12.486Z,4.94
2018-03-24T03:31:12.521Z,4.86
2018-03-24T03:32:12.550Z,4.85
2018-03-24T03:33:12.579Z,4.82
2018-03-24T03:34:12.630Z,4.73
2018-03-24T03:35:12.646Z,4.73
2018-03-24T03:36:12.677Z,4.72
2018-03-24T03:37:12.707Z,4.73
2018-03-24T03:38:12.746Z,4.78
2018-03-24T03:39:12.777Z,4.69
2018-03-24T03:40:12.856Z,4.65
2018-03-24T03:41:12.831Z,4.77
2018-03-24T03:42:12.864Z,4.84
2018-03-24T03:43:12.897Z,4.77
2018-03-24T03:44:12.929Z,4.80
2018-03-24T03:45:12.967Z,4.69
2018-03-24T03:46:12.992Z,4.78
2018-03-24T03:47:13.129Z,4.82
2018-03-24T03:48:13.057Z,4.66
2018-03-24T03:49:13.103Z,4.73
2018-03-24T03:50:13.117Z,4.77
2018-03-24T03:51:13.151Z,4.75
2018-03-24T03:52:13.180Z,4.82
2018-03-24T03:53:13.213Z,4.75
2018-03-24T03:54:13.362Z,4.80
2018-03-24T03:55:13.274Z,4.89
2018-03-24T03:56:13.307Z,4.75
2018-03-24T03:57:13.344Z,4.65
2018-03-24T03:58:13.370Z,4.80
2018-03-24T03:59:13.397Z,4.72
2018-03-24T04:00:13.429Z,4.80
2018-03-24T04:01:13.463Z,4.75
2018-03-24T04:02:13.490Z,4.69
2018-03-24T04:03:13.523Z,4.72
2018-03-24T04:04:13.558Z,4.70
2018-03-24T04:05:13.588Z,4.78
2018-03-24T04:06:13.618Z,4.85
2018-03-24T04:07:13.651Z,4.78
2018-03-24T04:08:13.680Z,4.78
2018-03-24T04:09:13.713Z,4.77
2018-03-24T04:10:13.743Z,4.78
2018-03-24T04:11:13.831Z,4.82
2018-03-24T04:12:13.831Z,4.82
2018-03-24T04:13:13.839Z,4.85
2018-03-24T04:14:13.869Z,4.84
2018-03-24T04:15:13.911Z,4.78
2018-03-24T04:16:13.933Z,4.73
2018-03-24T04:17:13.964Z,4.80
2018-03-24T04:18:14.086Z,4.69
2018-03-24T04:19:14.029Z,4.72
2018-03-24T04:20:14.060Z,4.69
2018-03-24T04:21:14.090Z,4.73
2018-03-24T04:22:14.120Z,4.77
2018-03-24T04:23:14.153Z,4.75
2018-03-24T04:24:14.188Z,4.65
2018-03-24T04:25:14.225Z,4.54
2018-03-24T04:26:14.264Z,4.45
2018-03-24T04:27:14.282Z,4.51
2018-03-24T04:28:14.359Z,4.55
2018-03-24T04:29:14.341Z,4.66
2018-03-24T04:30:14.431Z,4.58
2018-03-24T04:31:14.403Z,4.55
2018-03-24T04:32:14.436Z,4.59
2018-03-24T04:33:14.474Z,4.58
2018-03-24T04:34:14.501Z,4.59
2018-03-24T04:35:14.532Z,4.55
2018-03-24T04:36:14.563Z,4.62
2018-03-24T04:37:14.674Z,4.55
2018-03-24T04:38:14.623Z,4.52
2018-03-24T04:39:14.655Z,4.55
2018-03-24T04:40:14.695Z,4.67
2018-03-24T04:41:14.717Z,4.67
2018-03-24T04:42:14.754Z,4.66
2018-03-24T04:43:14.784Z,4.73
2018-03-24T04:44:14.812Z,4.77
2018-03-24T04:45:14.845Z,4.73
2018-03-24T04:46:14.875Z,4.72
2018-03-24T04:47:14.907Z,4.78
2018-03-24T04:48:14.973Z,4.72
2018-03-24T04:49:14.977Z,4.69
2018-03-24T04:50:14.999Z,4.75
2018-03-24T04:51:15.035Z,4.69
2018-03-24T04:52:15.063Z,4.60
2018-03-24T04:53:15.096Z,4.60
2018-03-24T04:54:15.145Z,4.62
2018-03-24T04:55:15.159Z,4.66
2018-03-24T04:56:15.216Z,4.55
2018-03-24T04:57:15.224Z,4.54
2018-03-24T04:58:15.253Z,4.55
2018-03-24T04:59:15.284Z,4.52
2018-03-24T05:00:15.316Z,4.52
2018-03-24T05:01:15.390Z,4.65
2018-03-24T05:02:15.377Z,4.51
2018-03-24T05:03:15.411Z,4.67
2018-03-24T05:04:15.457Z,4.54
2018-03-24T05:05:15.474Z,4.52
2018-03-24T05:06:15.505Z,4.48
2018-03-24T05:07:15.534Z,4.52
2018-03-24T05:08:15.564Z,4.50
2018-03-24T05:09:15.602Z,4.58
2018-03-24T05:10:15.627Z,4.52
2018-03-24T05:11:15.664Z,4.52
2018-03-24T05:12:15.704Z,4.58
2018-03-24T05:13:15.726Z,4.55
2018-03-24T05:14:15.755Z,4.55
2018-03-24T05:15:15.785Z,4.54
2018-03-24T05:16:15.816Z,4.59
2018-03-24T05:17:15.848Z,4.58
2018-03-24T05:18:15.894Z,4.66
2018-03-24T05:19:15.909Z,4.62
2018-03-24T05:20:15.961Z,4.52
2018-03-24T05:21:15.979Z,4.52
2018-03-24T05:22:16.005Z,4.59
2018-03-24T05:23:16.039Z,4.66
2018-03-24T05:24:16.139Z,4.72
2018-03-24T05:25:16.099Z,4.59
2018-03-24T05:26:16.190Z,4.63
2018-03-24T05:27:16.161Z,4.75
2018-03-24T05:28:16.197Z,4.72
2018-03-24T05:29:16.227Z,4.70
2018-03-24T05:30:16.264Z,4.72
2018-03-24T05:31:16.291Z,4.80
2018-03-24T05:32:16.317Z,4.70
2018-03-24T05:33:16.351Z,4.78
2018-03-24T05:34:16.384Z,4.80
2018-03-24T05:35:16.413Z,4.84
2018-03-24T05:36:16.449Z,4.82
2018-03-24T05:37:16.589Z,4.91
2018-03-24T05:38:16.509Z,4.89
2018-03-24T05:39:16.540Z,4.78
2018-03-24T05:40:16.569Z,4.91
2018-03-24T05:41:16.603Z,4.84
2018-03-24T05:42:16.633Z,4.91
2018-03-24T05:43:16.671Z,4.94
2018-03-24T05:44:16.699Z,4.97
2018-03-24T05:45:16.729Z,5.00
2018-03-24T05:46:16.760Z,4.94
2018-03-24T05:47:16.800Z,4.91
2018-03-24T05:48:16.818Z,5.00
2018-03-24T05:49:16.852Z,5.00
2018-03-24T05:50:16.881Z,4.99
2018-03-24T05:51:16.922Z,5.07
2018-03-24T05:52:16.951Z,5.07
2018-03-24T05:53:17.003Z,5.12
2018-03-24T05:54:17.040Z,5.13
2018-03-24T05:55:17.042Z,5.21
2018-03-24T05:56:17.073Z,5.07
2018-03-24T05:57:17.107Z,5.18
2018-03-24T05:58:17.136Z,5.17
2018-03-24T05:59:17.170Z,5.22
2018-03-24T06:00:17.200Z,5.24
2018-03-24T06:01:17.273Z,5.22
2018-03-24T06:02:17.261Z,5.33
2018-03-24T06:03:17.296Z,5.40
2018-03-24T06:04:17.331Z,5.33
2018-03-24T06:05:17.359Z,5.33
2018-03-24T06:06:17.408Z,5.43
2018-03-24T06:07:17.422Z,5.40
2018-03-24T06:08:17.550Z,5.38
2018-03-24T06:09:17.490Z,5.49
2018-03-24T06:10:17.538Z,5.45
2018-03-24T06:11:17.546Z,5.46
2018-03-24T06:12:17.586Z,5.45
2018-03-24T06:13:17.613Z,5.54
2018-03-24T06:14:17.643Z,5.49
2018-03-24T06:15:17.677Z,5.58
2018-03-24T06:16:17.716Z,5.60
2018-03-24T06:17:17.746Z,5.63
2018-03-24T06:18:17.773Z,5.63
2018-03-24T06:19:17.808Z,5.74
2018-03-24T06:20:17.942Z,5.78
2018-03-24T06:21:17.870Z,5.83
2018-03-24T06:22:17.896Z,5.90
2018-03-24T06:23:17.931Z,5.99
2018-03-24T06:24:17.972Z,5.94
2018-03-24T06:25:18.000Z,6.01
2018-03-24T06:26:18.022Z,6.18
2018-03-24T06:27:18.056Z,6.17
2018-03-24T06:28:18.102Z,6.11
2018-03-24T06:29:18.124Z,6.09
2018-03-24T06:30:18.158Z,6.09
2018-03-24T06:31:18.202Z,6.08
2018-03-24T06:32:18.216Z,6.17
2018-03-24T06:33:18.246Z,6.17
2018-03-24T06:34:18.280Z,6.27
2018-03-24T06:35:18.329Z,6.31
2018-03-24T06:36:18.360Z,6.34
2018-03-24T06:37:18.387Z,6.40
2018-03-24T06:38:18.411Z,6.43
2018-03-24T06:39:18.439Z,6.44
2018-03-24T06:40:18.476Z,6.49
2018-03-24T06:41:18.505Z,6.49
2018-03-24T06:42:18.538Z,6.66
2018-03-24T06:43:18.567Z,6.61
2018-03-24T06:44:18.720Z,6.71
2018-03-24T06:45:18.638Z,6.62
2018-03-24T06:46:18.664Z,6.73
2018-03-24T06:47:18.698Z,6.74
2018-03-24T06:48:18.731Z,6.80
2018-03-24T06:49:18.768Z,6.91
2018-03-24T06:50:18.794Z,6.88
2018-03-24T06:51:18.884Z,6.94
2018-03-24T06:52:18.866Z,6.87
2018-03-24T06:53:18.897Z,6.97
2018-03-24T06:54:18.925Z,6.95
2018-03-24T06:55:18.961Z,6.99
2018-03-24T06:56:18.989Z,6.94
2018-03-24T06:57:19.022Z,6.97
2018-03-24T06:58:19.056Z,7.13
2018-03-24T06:59:19.094Z,7.06
2018-03-24T07:00:19.123Z,7.09
2018-03-24T07:01:19.174Z,7.21
2018-03-24T07:02:19.186Z,7.12
2018-03-24T07:03:19.217Z,7.20
2018-03-24T07:04:19.254Z,7.24
2018-03-24T07:05:19.286Z,7.34
2018-03-24T07:06:19.326Z,7.34
2018-03-24T07:07:19.351Z,7.35
2018-03-24T07:08:19.382Z,7.45
2018-03-24T07:09:19.419Z,7.49
2018-03-24T07:10:19.513Z,7.48
2018-03-24T07:11:19.480Z,7.60
2018-03-24T07:12:19.513Z,7.60
2018-03-24T07:13:19.553Z,7.60
2018-03-24T07:14:19.583Z,7.68
2018-03-24T07:15:19.613Z,7.68
2018-03-24T07:16:19.649Z,7.68
2018-03-24T07:17:19.677Z,7.71
2018-03-24T07:18:19.712Z,7.75
2018-03-24T07:19:19.747Z,7.83
2018-03-24T07:20:19.784Z,7.80
2018-03-24T07:21:19.876Z,7.85
2018-03-24T07:22:19.846Z,7.90
2018-03-24T07:23:19.881Z,7.97
2018-03-24T07:24:19.909Z,8.00
2018-03-24T07:25:19.944Z,7.93
2018-03-24T07:26:19.977Z,8.05
2018-03-24T07:27:20.049Z,7.97
2018-03-24T07:28:20.047Z,8.05
2018-03-24T07:29:20.079Z,8.00
2018-03-24T07:30:20.116Z,8.05
2018-03-24T07:31:20.153Z,8.08
2018-03-24T07:32:20.186Z,8.01
2018-03-24T07:33:20.222Z,7.93
2018-03-24T07:34:20.277Z,8.11
2018-03-24T07:35:20.280Z,8.15
2018-03-24T07:36:20.313Z,8.15
2018-03-24T07:37:20.349Z,8.23
2018-03-24T07:38:20.382Z,8.18
2018-03-24T07:39:20.413Z,8.12
2018-03-24T07:40:20.451Z,8.22
2018-03-24T07:41:20.490Z,8.33
2018-03-24T07:42:20.513Z,8.30
2018-03-24T07:43:20.551Z,8.37
2018-03-24T07:44:20.584Z,8.41
2018-03-24T07:45:20.671Z,8.23
2018-03-24T07:46:20.653Z,8.26
2018-03-24T07:47:20.685Z,8.26
2018-03-24T07:48:20.717Z,8.33
2018-03-24T07:49:20.755Z,8.29
2018-03-24T07:50:20.786Z,8.33
2018-03-24T07:51:20.816Z,8.28
2018-03-24T07:52:20.868Z,8.20
2018-03-24T07:53:20.890Z,8.26
2018-03-24T07:54:20.924Z,8.19
2018-03-24T07:55:20.964Z,8.33
2018-03-24T07:56:20.997Z,8.40
2018-03-24T07:57:21.022Z,8.34
2018-03-24T07:58:21.059Z,8.40
2018-03-24T07:59:21.093Z,8.48
2018-03-24T08:00:21.123Z,8.40
2018-03-24T08:01:21.160Z,8.48
2018-03-24T08:02:21.195Z,8.36
2018-03-24T08:03:21.227Z,8.38
2018-03-24T08:04:21.262Z,8.37
2018-03-24T08:05:21.304Z,8.36
2018-03-24T08:06:21.329Z,8.29
2018-03-24T08:07:21.466Z,8.16
2018-03-24T08:08:21.399Z,8.16
2018-03-24T08:09:21.434Z,8.07
2018-03-24T08:10:21.464Z,7.93
2018-03-24T08:11:21.499Z,7.80
2018-03-24T08:12:21.537Z,7.77
2018-03-24T08:13:21.566Z,7.85
2018-03-24T08:14:21.657Z,7.75
2018-03-24T08:15:21.637Z,7.75
2018-03-24T08:16:21.667Z,7.85
2018-03-24T08:17:21.718Z,7.92
2018-03-24T08:18:21.739Z,7.90
2018-03-24T08:19:21.766Z,7.92
2018-03-24T08:20:21.805Z,7.92
2018-03-24T08:21:21.836Z,7.97
2018-03-24T08:22:21.868Z,7.90
2018-03-24T08:23:21.910Z,7.95
2018-03-24T08:24:21.941Z,8.02
2018-03-24T08:25:21.972Z,8.04
2018-03-24T08:26:22.005Z,8.05
2018-03-24T08:27:22.036Z,8.02
2018-03-24T08:28:22.070Z,8.07
2018-03-24T08:29:22.107Z,8.08
2018-03-24T08:30:22.137Z,8.05
2018-03-24T08:31:22.326Z,8.02
2018-03-24T08:32:22.219Z,8.10
2018-03-24T08:33:22.242Z,8.10
2018-03-24T08:34:22.271Z,8.08
2018-03-24T08:35:22.307Z,8.15
2018-03-24T08:36:22.347Z,8.15
2018-03-24T08:37:22.384Z,8.11
2018-03-24T08:38:22.493Z,8.19
2018-03-24T08:39:22.441Z,8.25
2018-03-24T08:40:22.483Z,8.37
2018-03-24T08:41:22.508Z,8.48
2018-03-24T08:42:22.539Z,8.53
2018-03-24T08:43:22.592Z,8.53
2018-03-24T08:44:22.608Z,8.56
2018-03-24T08:45:22.643Z,8.61
2018-03-24T08:46:22.680Z,8.61
2018-03-24T08:47:22.714Z,8.48
2018-03-24T08:48:22.743Z,8.48
2018-03-24T08:49:22.776Z,8.43
2018-03-24T08:50:22.810Z,8.56
2018-03-24T08:51:22.844Z,8.62
2018-03-24T08:52:22.878Z,8.62
2018-03-24T08:53:22.915Z,8.62
2018-03-24T08:54:22.944Z,8.71
2018-03-24T08:55:23.011Z,8.74
2018-03-24T08:56:23.013Z,8.86
2018-03-24T08:57:23.131Z,8.94
2018-03-24T08:58:23.081Z,8.96
2018-03-24T08:59:23.112Z,9.04
2018-03-24T09:00:23.151Z,9.14
2018-03-24T09:01:23.179Z,9.14
2018-03-24T09:02:23.215Z,9.23
2018-03-24T09:03:23.253Z,9.18
2018-03-24T09:04:23.283Z,9.14
2018-03-24T09:05:23.321Z,9.24
2018-03-24T09:06:23.352Z,9.24
2018-03-24T09:07:23.384Z,9.24
2018-03-24T09:08:23.485Z,9.26
2018-03-24T09:09:23.453Z,9.31
2018-03-24T09:10:23.488Z,9.31
2018-03-24T09:11:23.528Z,9.36
2018-03-24T09:12:23.564Z,9.24
2018-03-24T09:13:23.593Z,9.26
2018-03-24T09:14:23.628Z,9.42
2018-03-24T09:15:23.660Z,9.39
2018-03-24T09:16:23.692Z,9.43
2018-03-24T09:17:23.726Z,9.58
2018-03-24T09:18:23.762Z,9.66
2018-03-24T09:19:23.794Z,9.69
2018-03-24T09:20:23.826Z,9.93
2018-03-24T09:21:23.875Z,10.07
2018-03-24T09:22:23.925Z,10.18
2018-03-24T09:23:23.932Z,10.22
2018-03-24T09:24:23.966Z,10.20
2018-03-24T09:25:24.018Z,10.22
2018-03-24T09:26:24.034Z,10.22
2018-03-24T09:27:24.068Z,10.26
2018-03-24T09:28:24.164Z,10.27
2018-03-24T09:29:24.138Z,10.36
2018-03-24T09:30:24.173Z,10.55
2018-03-24T09:31:24.206Z,10.79
2018-03-24T09:32:24.257Z,10.88
2018-03-24T09:33:24.279Z,11.02
2018-03-24T09:34:24.390Z,11.29
2018-03-24T09:35:24.393Z,11.51
2018-03-24T09:36:24.398Z,11.64
2018-03-24T09:37:24.417Z,11.82
2018-03-24T09:38:24.455Z,11.98
2018-03-24T09:39:24.498Z,12.13
2018-03-24T09:40:24.601Z,12.09
2018-03-24T09:41:24.559Z,12.12
2018-03-24T09:42:24.597Z,11.95
2018-03-24T09:43:24.631Z,11.94
2018-03-24T09:44:24.666Z,11.91
2018-03-24T09:45:24.704Z,11.96
2018-03-24T09:46:24.748Z,11.88
2018-03-24T09:47:24.959Z,11.91
2018-03-24T09:48:24.811Z,11.91
2018-03-24T09:49:24.847Z,12.04
2018-03-24T09:50:24.892Z,12.05
2018-03-24T09:51:24.918Z,12.12
2018-03-24T09:52:24.955Z,12.16
2018-03-24T09:53:24.996Z,12.17
2018-03-24T09:54:25.034Z,12.31
2018-03-24T09:55:25.157Z,12.14
2018-03-24T09:56:25.107Z,12.01
2018-03-24T09:57:25.139Z,11.99
2018-03-24T09:58:25.172Z,12.05
2018-03-24T09:59:25.212Z,12.16
2018-03-24T10:00:25.247Z,12.34
2018-03-24T10:01:25.282Z,12.27
2018-03-24T10:02:25.323Z,12.31
2018-03-24T10:03:25.367Z,12.29
2018-03-24T10:04:25.397Z,12.05
2018-03-24T10:05:25.428Z,11.98
2018-03-24T10:06:25.547Z,11.88
2018-03-24T10:07:25.502Z,11.86
2018-03-24T10:08:25.538Z,11.80
2018-03-24T10:09:25.578Z,11.83
2018-03-24T10:10:25.620Z,11.70
2018-03-24T10:11:25.648Z,11.79
2018-03-24T10:12:25.690Z,11.75
2018-03-24T10:13:25.720Z,11.67
2018-03-24T10:14:25.759Z,11.60
2018-03-24T10:15:25.794Z,11.70
2018-03-24T10:16:25.836Z,11.78
2018-03-24T10:17:25.869Z,11.95
2018-03-24T10:18:25.918Z,11.91
2018-03-24T10:19:25.942Z,11.96
2018-03-24T10:20:25.985Z,12.05
2018-03-24T10:21:26.021Z,12.04
2018-03-24T10:22:26.101Z,11.95
2018-03-24T10:23:26.102Z,11.90
2018-03-24T10:24:26.125Z,11.98
2018-03-24T10:25:26.162Z,12.07
2018-03-24T10:26:26.208Z,12.09
2018-03-24T10:27:26.235Z,12.28
2018-03-24T10:28:26.276Z,12.24
2018-03-24T10:29:26.310Z,12.38
2018-03-24T10:30:26.349Z,12.13
2018-03-24T10:31:26.381Z,12.20
2018-03-24T10:32:26.430Z,12.17
2018-03-24T10:33:26.510Z,12.13
2018-03-24T10:34:26.496Z,12.04
2018-03-24T10:35:26.591Z,12.13
2018-03-24T10:36:26.574Z,12.23
2018-03-24T10:37:26.603Z,12.23
2018-03-24T10:38:26.640Z,12.34
2018-03-24T10:39:26.676Z,12.37
2018-03-24T10:40:26.815Z,12.35
2018-03-24T10:41:26.754Z,12.41
2018-03-24T10:42:26.793Z,12.47
2018-03-24T10:43:26.823Z,12.31
2018-03-24T10:44:26.866Z,12.31
2018-03-24T10:45:26.904Z,12.24
2018-03-24T10:46:26.935Z,12.13
2018-03-24T10:47:27.058Z,12.13
2018-03-24T10:48:27.010Z,11.95
2018-03-24T10:49:27.050Z,11.90
2018-03-24T10:50:27.186Z,11.95
2018-03-24T10:51:27.121Z,12.10
2018-03-24T10:52:27.171Z,12.12
2018-03-24T10:53:27.199Z,12.05
2018-03-24T10:54:27.235Z,12.13
2018-03-24T10:55:27.269Z,12.12
2018-03-24T10:56:27.306Z,12.05
2018-03-24T10:57:27.365Z,11.99
2018-03-24T10:58:27.384Z,12.10
2018-03-24T10:59:27.424Z,12.05
2018-03-24T11:00:27.455Z,12.13
2018-03-24T11:01:27.496Z,12.01
2018-03-24T11:02:27.535Z,12.12
2018-03-24T11:03:27.566Z,12.05
2018-03-24T11:04:27.603Z,12.16
2018-03-24T11:05:27.680Z,12.12
2018-03-24T11:06:27.679Z,12.13
2018-03-24T11:07:27.715Z,12.13
2018-03-24T11:08:27.754Z,12.16
2018-03-24T11:09:27.841Z,12.28
2018-03-24T11:10:27.833Z,12.39
2018-03-24T11:11:27.864Z,12.45
2018-03-24T11:12:27.905Z,12.54
2018-03-24T11:13:27.941Z,12.57
2018-03-24T11:14:27.975Z,12.78
2018-03-24T11:15:28.011Z,12.79
2018-03-24T11:16:28.155Z,12.78
2018-03-24T11:17:28.084Z,13.01
2018-03-24T11:18:28.121Z,12.97
2018-03-24T11:19:28.160Z,12.97
2018-03-24T11:20:28.207Z,12.90
2018-03-24T11:21:28.238Z,12.92
2018-03-24T11:22:28.271Z,12.49
2018-03-24T11:23:28.528Z,12.53
2018-03-24T11:24:28.346Z,12.54
2018-03-24T11:25:28.388Z,12.62
2018-03-24T11:26:28.423Z,12.72
2018-03-24T11:27:28.465Z,12.65
2018-03-24T11:28:28.504Z,12.54
2018-03-24T11:29:28.647Z,12.39
2018-03-24T11:30:28.581Z,12.19
2018-03-24T11:31:28.617Z,12.13
2018-03-24T11:32:28.647Z,12.13
2018-03-24T11:33:28.690Z,12.24
2018-03-24T11:34:28.748Z,12.29
2018-03-24T11:35:28.762Z,12.28
2018-03-24T11:36:28.813Z,12.46
2018-03-24T11:37:28.839Z,12.37
2018-03-24T11:38:28.877Z,12.38
2018-03-24T11:39:28.918Z,12.54
2018-03-24T11:40:28.950Z,12.53
2018-03-24T11:41:28.988Z,12.59
2018-03-24T11:42:29.023Z,12.68
2018-03-24T11:43:29.065Z,12.78
2018-03-24T11:44:29.106Z,12.70
2018-03-24T11:45:29.135Z,12.79
2018-03-24T11:46:29.172Z,12.82
2018-03-24T11:47:29.208Z,12.82
2018-03-24T11:48:29.248Z,12.97
2018-03-24T11:49:29.378Z,13.03
2018-03-24T11:50:29.322Z,13.03
2018-03-24T11:51:29.374Z,13.01
2018-03-24T11:52:29.399Z,13.03
2018-03-24T11:53:29.435Z,13.15
2018-03-24T11:54:29.471Z,13.10
2018-03-24T11:55:29.509Z,13.32
2018-03-24T11:56:29.564Z,13.30
2018-03-24T11:57:29.590Z,13.30
2018-03-24T11:58:29.623Z,13.26
2018-03-24T11:59:29.662Z,13.22
2018-03-24T12:00:29.700Z,13.19
2018-03-24T12:01:29.740Z,13.33
2018-03-24T12:02:29.774Z,13.49
2018-03-24T12:03:29.813Z,13.69
2018-03-24T12:04:29.852Z,13.71
2018-03-24T12:05:29.891Z,13.71
2018-03-24T12:06:29.928Z,13.88
2018-03-24T12:07:29.964Z,13.64
2018-03-24T12:08:30.007Z,13.45
2018-03-24T12:09:30.043Z,13.20
2018-03-24T12:10:30.076Z,12.87
2018-03-24T12:11:30.114Z,13.01
2018-03-24T12:12:30.153Z,13.20
2018-03-24T12:13:30.202Z,13.14
2018-03-24T12:14:30.241Z,13.32
2018-03-24T12:15:30.266Z,13.45
2018-03-24T12:16:30.377Z,13.46
2018-03-24T12:17:30.351Z,13.46
2018-03-24T12:18:30.382Z,13.67
2018-03-24T12:19:30.440Z,13.59
2018-03-24T12:20:30.460Z,13.62
2018-03-24T12:21:30.502Z,13.28
2018-03-24T12:22:30.537Z,13.36
2018-03-24T12:23:30.574Z,13.48
2018-03-24T12:24:30.612Z,13.63
2018-03-24T12:25:30.657Z,13.62
2018-03-24T12:26:30.694Z,13.66
2018-03-24T12:27:30.833Z,13.71
2018-03-24T12:28:30.764Z,13.67
2018-03-24T12:29:30.803Z,13.73
2018-03-24T12:30:30.840Z,13.70
2018-03-24T12:31:30.885Z,13.48
2018-03-24T12:32:30.919Z,13.42
2018-03-24T12:33:30.961Z,13.32
2018-03-24T12:34:30.996Z,13.48
2018-03-24T12:35:31.090Z,13.49
2018-03-24T12:36:31.118Z,13.54
2018-03-24T12:37:31.108Z,13.55
2018-03-24T12:38:31.149Z,13.66
2018-03-24T12:39:31.220Z,13.64
2018-03-24T12:40:31.223Z,13.36
2018-03-24T12:41:31.268Z,13.15
2018-03-24T12:42:31.299Z,13.20
2018-03-24T12:43:31.338Z,13.25
2018-03-24T12:44:31.375Z,13.38
2018-03-24T12:45:31.417Z,13.39
2018-03-24T12:46:31.472Z,13.38
2018-03-24T12:47:31.494Z,13.36
2018-03-24T12:48:31.528Z,13.62
2018-03-24T12:49:31.568Z,13.69
2018-03-24T12:50:31.610Z,13.63
2018-03-24T12:51:31.653Z,13.64
2018-03-24T12:52:31.682Z,13.55
2018-03-24T12:53:31.720Z,13.23
2018-03-24T12:54:31.810Z,13.17
2018-03-24T12:55:31.798Z,13.20
2018-03-24T12:56:31.848Z,13.44
2018-03-24T12:57:31.871Z,13.59
2018-03-24T12:58:31.912Z,13.63
2018-03-24T12:59:31.946Z,13.62
2018-03-24T13:00:31.987Z,13.62
2018-03-24T13:01:32.028Z,13.28
2018-03-24T13:02:32.083Z,13.07
2018-03-24T13:03:32.110Z,12.86
2018-03-24T13:04:32.141Z,12.78
2018-03-24T13:05:32.185Z,12.60
2018-03-24T13:06:32.215Z,12.56
2018-03-24T13:07:32.271Z,12.46
2018-03-24T13:08:32.292Z,12.54
2018-03-24T13:09:32.331Z,12.64
2018-03-24T13:10:32.471Z,12.62